Terminal Aerodrome Forecast
Issued by NWS Wilmington, OH

Current Version | Previous Version | Text Only | Print | Product List | Glossary Off
Versions: 1 2 3 4 5 6 7 8 9 10 11 12 13 14 15 16 17 18 19 20 21 22

116
FTUS41 KILN 272334
TAFDAY
TAF
KDAY 272334Z 2800/2824 07010KT P6SM OVC020
     FM280400 09008KT 5SM -SHRA BR OVC015
     FM280800 12006KT 3SM BR VCSH OVC008
     FM281400 26008KT P6SM OVC018
     FM281800 32008KT P6SM VCSH BKN028=

USA.gov is the U.S. government's official web portal to all federal, state and local government web resources and services.